Inverness, California
Current Conditions -  °F | °C
As of 8:35 PM on Saturday 20 Dec 2014 (Local Time) from KDVO Reporting Station
Overcast Overcast  
Wind Chill: 57°   Ceiling: 2700
Heat Index: 57°   Visibility: 10mi
Dew Point: 55°   Wind: 3mph
Humidity: 94%   Direction: 210°SSW
Pressure: 30.23"   Gusts: NA
Location:  38.1°N, 122.86°W
Report Text: KDVO 210435Z AUTO 21003KT 10SM FEW020 BKN027 OVC035 14/13 A3023 RMK AO2
Loading
Personal Weather Stations






























Interactive Weather Map New forecast layout! Learn more

10-Day Weather Forecast

Advertisements
Track Severe Weather on mobile